Terminal Aerodrome Forecast
Issued by NWS

Home | Current Version | Previous Version | Text Only | Print | Product List | Glossary On
Versions: 1 2 3 4 5 6 7 8 9 10 11 12 13 14 15 16
000
FTUS41 KPBZ 302300
TAFHLG
TAF
KHLG 302322Z 3100/3124 19005KT P6SM BKN150
     FM310800 21005KT 5SM -SHRA OVC030
     FM311200 23008KT 3SM -SHRA SCT007 OVC015
     FM312000 22008KT 5SM -SHRA VCTS OVC020CB
     FM312300 22005KT 6SM -SHRA OVC020=

USA.gov is the U.S. government's official web portal to all federal, state and local government web resources and services.